Time;durP1;ratioP1;P1;durP2;ratioP2;P2;SDS_P1;SDS_P2;PMS_P1;PMS_P2;Temp;Humidity;BMP_temperature;BMP_pressure;BME280_temperature;BME280_humidity;BME280_pressure;Samples;Min_cycle;Max_cycle;Signal;HPM_P1;HPM_P2
2022/09/14 00:01:15;;;;;;;;;;;17.40;99.90;;;;;;5116996;27;20036;-68
2022/09/14 00:03:58;;;;;;;9.43;5.65;;;17.40;99.90;;;;;;5122100;28;19964;-68
2022/09/14 00:06:40;;;;;;;9.57;6.95;;;17.40;99.90;;;;;;5116597;28;20040;-70
2022/09/14 00:09:23;;;;;;;10.10;6.40;;;17.40;99.90;;;;;;5121626;28;20027;-68
2022/09/14 00:12:02;;;;;;;12.77;7.88;;;17.30;99.90;;;;;;5109010;28;20127;-70
2022/09/14 00:14:29;;;;;;;13.82;6.53;;;17.30;99.90;;;;;;5119822;27;20074;-68
2022/09/14 00:16:54;;;;;;;8.73;5.18;;;17.30;99.90;;;;;;5113802;27;20046;-68
2022/09/14 00:19:21;;;;;;;;;;;17.30;99.90;;;;;;5107964;28;20028;-68
2022/09/14 00:21:52;;;;;;;8.35;5.70;;;17.30;99.90;;;;;;5102534;28;19919;-69
2022/09/14 00:24:19;;;;;;;7.28;5.22;;;17.30;99.90;;;;;;5107778;28;20054;-70
2022/09/14 00:26:44;;;;;;;7.07;5.20;;;17.30;99.90;;;;;;5109351;27;20039;-68
2022/09/14 00:29:10;;;;;;;;;;;17.30;99.90;;;;;;5109093;28;20123;-68
2022/09/14 00:31:38;;;;;;;9.68;5.05;;;17.30;99.90;;;;;;5094619;28;19923;-68
2022/09/14 00:34:06;;;;;;;8.35;5.30;;;17.30;99.90;;;;;;5107691;28;20058;-68
2022/09/14 00:36:36;;;;;;;8.27;4.97;;;17.30;99.90;;;;;;5100497;28;20456;-68
2022/09/14 00:39:02;;;;;;;12.18;5.80;;;17.30;99.90;;;;;;5100717;28;20072;-68
2022/09/14 00:41:33;;;;;;;7.75;5.85;;;17.30;99.90;;;;;;5093552;28;20403;-68
2022/09/14 00:44:05;;;;;;;13.52;7.40;;;17.30;99.90;;;;;;5107186;28;20035;-68
2022/09/14 00:46:35;;;;;;;10.77;7.10;;;17.20;99.90;;;;;;5092197;28;20119;-68
2022/09/14 00:49:06;;;;;;;8.32;5.70;;;17.20;99.90;;;;;;5107683;28;20059;-68
2022/09/14 00:51:34;;;;;;;7.72;5.53;;;17.20;99.90;;;;;;5103591;28;20535;-68
2022/09/14 00:54:02;;;;;;;8.23;5.53;;;17.20;99.90;;;;;;5106424;28;20496;-68
2022/09/14 00:56:29;;;;;;;9.40;5.75;;;17.20;99.90;;;;;;5108029;27;20039;-68
2022/09/14 00:58:57;;;;;;;9.98;6.20;;;17.20;99.90;;;;;;5108811;28;20042;-68
2022/09/14 01:01:24;;;;;;;10.60;5.68;;;17.20;99.90;;;;;;5101653;28;20039;-69
2022/09/14 01:03:50;;;;;;;9.20;6.93;;;17.20;99.90;;;;;;5107227;28;20043;-68
2022/09/14 01:06:28;;;;;;;;;;;17.20;99.90;;;;;;5103521;28;20051;-68
2022/09/14 01:09:34;;;;;;;9.48;5.97;;;17.20;99.90;;;;;;5100617;28;19916;-69
2022/09/14 01:12:23;;;;;;;10.60;6.38;;;17.20;99.90;;;;;;5093746;28;20036;-68
2022/09/14 01:15:08;;;;;;;9.43;6.68;;;17.20;99.90;;;;;;5104014;28;20039;-68
2022/09/14 01:17:46;;;;;;;13.57;7.13;;;17.20;99.90;;;;;;5103011;28;20087;-68
2022/09/14 01:20:25;;;;;;;6.85;5.47;;;17.20;99.90;;;;;;5105713;28;20122;-68
2022/09/14 01:23:12;;;;;;;8.93;7.10;;;17.20;99.90;;;;;;5106530;28;20057;-68
2022/09/14 01:26:02;;;;;;;9.52;6.22;;;17.20;99.90;;;;;;5107805;27;20043;-68
2022/09/14 01:28:43;;;;;;;8.63;5.78;;;17.20;99.90;;;;;;5098655;28;20499;-68
2022/09/14 01:31:15;;;;;;;10.63;6.38;;;17.10;99.90;;;;;;5097794;28;20040;-68
2022/09/14 01:33:52;;;;;;;13.90;8.65;;;17.20;99.90;;;;;;5106176;28;20040;-68
2022/09/14 01:36:19;;;;;;;13.68;9.65;;;17.20;99.90;;;;;;5100839;28;20039;-68
2022/09/14 01:38:50;;;;;;;17.65;9.75;;;17.20;99.90;;;;;;5099945;28;20059;-68
2022/09/14 01:41:22;;;;;;;15.32;11.05;;;17.20;99.90;;;;;;5096762;28;20032;-68
2022/09/14 01:43:56;;;;;;;14.43;11.00;;;17.20;99.90;;;;;;5097203;28;20043;-66
2022/09/14 01:46:30;;;;;;;16.50;11.43;;;17.20;99.90;;;;;;5100625;28;20047;-66
2022/09/14 01:49:14;;;;;;;16.85;11.70;;;17.20;99.90;;;;;;5106698;28;20608;-66
2022/09/14 01:51:46;;;;;;;17.30;12.02;;;17.10;99.90;;;;;;5103204;28;20127;-66
2022/09/14 01:54:32;;;;;;;19.08;12.30;;;17.10;99.90;;;;;;5106231;28;20039;-66
2022/09/14 01:57:27;;;;;;;19.88;14.57;;;17.10;99.90;;;;;;5106637;27;20035;-67
2022/09/14 01:59:57;;;;;;;17.65;12.93;;;17.10;99.90;;;;;;5103436;28;20044;-66
2022/09/14 02:02:46;;;;;;;18.88;12.48;;;17.10;99.90;;;;;;5101984;28;20044;-68
2022/09/14 02:05:14;;;;;;;22.13;14.48;;;17.10;99.90;;;;;;5097205;28;20038;-67
2022/09/14 02:07:40;;;;;;;22.90;15.40;;;17.10;99.90;;;;;;5104128;28;20042;-67
2022/09/14 02:10:08;;;;;;;;;;;17.00;99.90;;;;;;5097557;28;20036;-67
2022/09/14 02:12:34;;;;;;;22.35;13.25;;;17.00;99.90;;;;;;5086381;28;19916;-67
2022/09/14 02:14:59;;;;;;;18.95;13.13;;;17.00;99.90;;;;;;5104767;28;20062;-67
2022/09/14 02:17:25;;;;;;;;;;;17.00;99.90;;;;;;5105613;28;20453;-66
2022/09/14 02:19:55;;;;;;;21.58;13.55;;;17.00;99.90;;;;;;5104675;28;19970;-66
2022/09/14 02:22:20;;;;;;;18.27;13.40;;;17.00;99.90;;;;;;5089927;28;20066;-66
2022/09/14 02:24:46;;;;;;;;;;;17.00;99.90;;;;;;5102375;28;20031;-66
2022/09/14 02:27:12;;;;;;;18.92;12.20;;;17.00;99.90;;;;;;5093976;27;19924;-66
2022/09/14 02:29:37;;;;;;;;;;;16.90;99.90;;;;;;5103074;28;20100;-66
2022/09/14 02:32:31;;;;;;;18.77;13.30;;;16.90;99.90;;;;;;5090604;28;19920;-66
2022/09/14 02:35:00;;;;;;;20.92;14.18;;;16.90;99.90;;;;;;5103424;28;20092;-66
2022/09/14 02:37:52;;;;;;;26.33;14.85;;;16.90;99.90;;;;;;5088220;28;20131;-66
2022/09/14 02:40:26;;;;;;;22.50;15.00;;;16.90;99.90;;;;;;5095291;28;20042;-66
2022/09/14 02:43:41;;;;;;;22.10;14.70;;;16.80;99.90;;;;;;5088896;28;20040;-66
2022/09/14 02:46:31;;;;;;;19.13;14.70;;;16.80;99.90;;;;;;5075666;28;20056;-66
2022/09/14 02:49:10;;;;;;;19.52;14.40;;;16.80;99.90;;;;;;5090333;28;20036;-66
2022/09/14 02:51:46;;;;;;;21.67;15.02;;;16.80;99.90;;;;;;5098202;28;20051;-66
2022/09/14 02:54:23;;;;;;;20.02;13.98;;;16.80;99.90;;;;;;5098546;28;20119;-68
2022/09/14 02:56:49;;;;;;;26.38;13.25;;;16.80;99.90;;;;;;5101663;28;20126;-67
2022/09/14 02:59:15;;;;;;;20.52;13.60;;;16.70;99.90;;;;;;5097685;28;20126;-68
2022/09/14 03:01:41;;;;;;;21.38;13.48;;;16.70;99.90;;;;;;5098746;28;20036;-68
2022/09/14 03:04:06;;;;;;;;;;;16.70;99.90;;;;;;5098345;28;20043;-67
2022/09/14 03:06:32;;;;;;;22.80;13.55;;;16.70;99.90;;;;;;5101552;28;19919;-68
2022/09/14 03:08:58;;;;;;;;;;;16.70;99.90;;;;;;5090896;28;20138;-70
2022/09/14 03:11:23;;;;;;;17.55;11.80;;;16.70;99.90;;;;;;5095875;28;19916;-68
2022/09/14 03:13:49;;;;;;;18.38;13.32;;;16.60;99.90;;;;;;5103833;28;20452;-69
2022/09/14 03:16:17;;;;;;;16.02;12.00;;;16.60;99.90;;;;;;5097935;28;20032;-68
2022/09/14 03:18:43;;;;;;;17.40;11.02;;;16.30;99.90;;;;;;5097257;28;20042;-68
2022/09/14 03:21:10;;;;;;;;;;;16.30;99.90;;;;;;5100166;28;20110;-68
2022/09/14 03:23:47;;;;;;;13.27;9.00;;;16.30;99.90;;;;;;5094052;28;20387;-68
2022/09/14 03:26:15;;;;;;;15.02;9.30;;;16.20;99.90;;;;;;5093189;28;20406;-67
2022/09/14 03:28:41;;;;;;;15.90;10.80;;;16.30;99.90;;;;;;5092469;28;20660;-67
2022/09/14 03:31:08;;;;;;;;;;;16.30;99.90;;;;;;5095837;28;20043;-67
2022/09/14 03:33:33;;;;;;;15.02;9.45;;;16.30;99.90;;;;;;5096623;28;19920;-67
2022/09/14 03:35:59;;;;;;;;;;;16.30;99.90;;;;;;5101327;28;20052;-67
2022/09/14 03:38:28;;;;;;;13.27;9.18;;;16.30;99.90;;;;;;5092663;28;19916;-67
2022/09/14 03:40:56;;;;;;;14.85;9.52;;;16.30;99.90;;;;;;5098407;28;20080;-67
2022/09/14 03:43:22;;;;;;;14.75;9.63;;;16.20;99.90;;;;;;5100499;28;20055;-67
2022/09/14 03:45:48;;;;;;;14.93;10.07;;;16.10;99.90;;;;;;5093312;28;20101;-68
2022/09/14 03:48:14;;;;;;;;;;;16.10;99.90;;;;;;5100792;28;20039;-67
2022/09/14 03:50:41;;;;;;;14.32;9.93;;;16.00;99.90;;;;;;5100935;28;19928;-67
2022/09/14 03:53:07;;;;;;;16.23;9.15;;;16.00;99.90;;;;;;5100075;28;20038;-67
2022/09/14 03:55:32;;;;;;;;;;;16.00;99.90;;;;;;5110001;27;20044;-67
2022/09/14 03:57:58;;;;;;;10.80;7.95;;;16.00;99.90;;;;;;5109148;28;19922;-66
2022/09/14 04:00:23;;;;;;;14.05;8.18;;;16.00;99.90;;;;;;5104098;28;20531;-66
2022/09/14 04:02:49;;;;;;;;;;;16.10;99.90;;;;;;5108319;28;20046;-67
2022/09/14 04:05:15;;;;;;;13.65;8.48;;;16.10;99.90;;;;;;5105025;28;20357;-66
2022/09/14 04:07:40;;;;;;;;;;;16.00;99.90;;;;;;5106008;28;20119;-66
2022/09/14 04:10:07;;;;;;;13.95;7.45;;;16.00;99.90;;;;;;5100927;28;19956;-66
2022/09/14 04:12:36;;;;;;;11.02;7.72;;;16.00;99.90;;;;;;5095618;28;20228;-67
2022/09/14 04:15:03;;;;;;;12.48;8.20;;;16.00;99.90;;;;;;5098340;28;20068;-66
2022/09/14 04:17:29;;;;;;;11.48;7.70;;;16.00;99.90;;;;;;5092336;28;20156;-66
2022/09/14 04:19:54;;;;;;;;;;;16.10;99.90;;;;;;5106038;28;20508;-66
2022/09/14 04:22:20;;;;;;;10.70;8.07;;;16.10;99.90;;;;;;5102948;28;19919;-66
2022/09/14 04:24:46;;;;;;;;;;;16.10;99.90;;;;;;5102311;28;20551;-66
2022/09/14 04:27:12;;;;;;;10.80;6.93;;;16.00;99.90;;;;;;5107916;27;19919;-66
2022/09/14 04:29:38;;;;;;;;;;;16.00;99.90;;;;;;5107885;28;20399;-66
2022/09/14 04:32:03;;;;;;;11.25;7.78;;;16.00;99.90;;;;;;5100355;28;19919;-66
2022/09/14 04:34:29;;;;;;;;;;;16.10;99.90;;;;;;5108350;28;20108;-66
2022/09/14 04:36:55;;;;;;;13.07;8.48;;;16.00;99.90;;;;;;5102033;28;19916;-66
2022/09/14 04:39:21;;;;;;;;;;;16.00;99.90;;;;;;5101453;28;20897;-66
2022/09/14 04:41:47;;;;;;;13.45;8.70;;;16.00;99.90;;;;;;5098297;28;19916;-66
2022/09/14 04:44:14;;;;;;;11.25;8.30;;;16.00;99.90;;;;;;5107424;28;20403;-66
2022/09/14 04:46:41;;;;;;;12.77;9.40;;;16.00;99.90;;;;;;5102040;28;20040;-66
2022/09/14 04:49:07;;;;;;;16.05;9.18;;;15.90;99.90;;;;;;5108442;28;20032;-66
2022/09/14 04:51:34;;;;;;;12.15;7.88;;;15.90;99.90;;;;;;5101201;28;20076;-66
2022/09/14 04:54:01;;;;;;;9.50;6.95;;;15.90;99.90;;;;;;5100879;28;20128;-66
2022/09/14 04:56:30;;;;;;;13.45;7.47;;;15.90;99.90;;;;;;5107598;27;20047;-66
2022/09/14 04:58:58;;;;;;;15.38;7.88;;;15.90;99.90;;;;;;5107595;28;20550;-66
2022/09/14 05:01:26;;;;;;;13.70;8.25;;;15.90;99.90;;;;;;5101213;28;20040;-66
2022/09/14 05:03:53;;;;;;;11.82;8.20;;;15.90;99.90;;;;;;5107182;28;20048;-66
2022/09/14 05:06:24;;;;;;;11.13;8.40;;;15.90;99.90;;;;;;5090655;28;20036;-66
2022/09/14 05:08:51;;;;;;;11.13;7.32;;;15.90;99.90;;;;;;5095521;28;20040;-66
2022/09/14 05:11:19;;;;;;;9.48;6.95;;;15.90;99.90;;;;;;5101771;28;20028;-66
2022/09/14 05:13:46;;;;;;;8.15;5.72;;;15.90;99.90;;;;;;5098524;28;20039;-67
2022/09/14 05:16:21;;;;;;;8.15;5.88;;;15.80;99.90;;;;;;5095947;28;20052;-67
2022/09/14 05:18:48;;;;;;;7.43;5.25;;;15.70;99.90;;;;;;5097133;28;20123;-66
2022/09/14 05:21:18;;;;;;;9.27;6.53;;;15.70;99.90;;;;;;5092811;28;20043;-67
2022/09/14 05:23:45;;;;;;;9.98;6.78;;;15.60;99.90;;;;;;5094391;28;20039;-67
2022/09/14 05:26:11;;;;;;;9.15;6.13;;;15.60;99.90;;;;;;5099043;27;20040;-66
2022/09/14 05:28:37;;;;;;;;;;;15.60;99.90;;;;;;5097529;28;20042;-66
2022/09/14 05:31:04;;;;;;;9.75;6.28;;;15.60;99.90;;;;;;5098518;28;20358;-66
2022/09/14 05:33:30;;;;;;;9.35;6.10;;;15.60;99.90;;;;;;5093767;28;20100;-66
2022/09/14 05:36:03;;;;;;;12.10;7.32;;;15.60;99.90;;;;;;5100155;28;20108;-68
2022/09/14 05:38:31;;;;;;;15.20;6.15;;;15.60;99.90;;;;;;5089040;28;20550;-67
2022/09/14 05:40:57;;;;;;;8.25;5.30;;;15.40;99.90;;;;;;5091823;28;20036;-66
2022/09/14 05:43:23;;;;;;;;;;;15.50;99.90;;;;;;5105630;28;20177;-67
2022/09/14 05:45:49;;;;;;;10.02;6.03;;;15.50;99.90;;;;;;5105227;28;20002;-67
2022/09/14 05:48:14;;;;;;;;;;;15.50;99.90;;;;;;5106864;28;20033;-66
2022/09/14 05:50:40;;;;;;;7.38;5.78;;;15.50;99.90;;;;;;5100737;28;19920;-67
2022/09/14 05:53:05;;;;;;;9.77;5.95;;;15.50;99.90;;;;;;5106266;28;20060;-66
2022/09/14 05:55:31;;;;;;;;;;;15.40;99.90;;;;;;5107003;27;20046;-67
2022/09/14 05:57:56;;;;;;;7.95;5.72;;;15.40;99.90;;;;;;5106675;28;19916;-67
2022/09/14 06:00:22;;;;;;;;;;;15.30;99.90;;;;;;5101036;28;20083;-67
2022/09/14 06:02:49;;;;;;;6.47;5.50;;;15.30;99.90;;;;;;5101825;28;20011;-68
2022/09/14 06:05:15;;;;;;;9.82;5.93;;;15.40;99.90;;;;;;5094764;28;20035;-67
2022/09/14 06:07:41;;;;;;;10.35;6.35;;;15.30;99.90;;;;;;5087147;28;20705;-68
2022/09/14 06:10:06;;;;;;;;;;;15.30;99.90;;;;;;5096798;28;20046;-65
2022/09/14 06:12:32;;;;;;;9.25;5.28;;;15.30;99.90;;;;;;5098480;28;19916;-67
2022/09/14 06:14:57;;;;;;;;;;;15.30;99.90;;;;;;5102914;28;20039;-64
2022/09/14 06:17:23;;;;;;;7.88;5.18;;;15.30;99.90;;;;;;5086809;28;19928;-66
2022/09/14 06:19:49;;;;;;;;;;;15.30;99.90;;;;;;5104282;28;20502;-66
2022/09/14 06:22:15;;;;;;;6.00;4.70;;;15.30;99.90;;;;;;5097173;28;19923;-66
2022/09/14 06:24:40;;;;;;;;;;;15.30;99.90;;;;;;5097204;28;20416;-65
2022/09/14 06:27:09;;;;;;;6.63;5.13;;;15.30;99.90;;;;;;5094289;27;20470;-65
2022/09/14 06:29:35;;;;;;;6.47;5.07;;;15.30;99.90;;;;;;5101519;28;20039;-62
2022/09/14 06:32:00;;;;;;;;;;;15.30;99.90;;;;;;5093346;27;20032;-64
2022/09/14 06:34:26;;;;;;;10.15;5.15;;;15.30;99.90;;;;;;5101340;28;19920;-65
2022/09/14 06:36:51;;;;;;;;;;;15.20;99.90;;;;;;5100410;28;20039;-65
2022/09/14 06:39:17;;;;;;;7.85;4.97;;;15.20;99.90;;;;;;5099109;28;20436;-64
2022/09/14 06:41:43;;;;;;;;;;;15.20;99.90;;;;;;5095769;28;20035;-65
2022/09/14 06:44:08;;;;;;;6.93;4.95;;;15.10;99.90;;;;;;5097261;28;19916;-65
2022/09/14 06:46:34;;;;;;;;;;;15.10;99.90;;;;;;5096941;28;20529;-67
2022/09/14 06:49:06;;;;;;;5.32;4.68;;;15.00;99.90;;;;;;5099162;28;20386;-66
2022/09/14 06:51:43;;;;;;;6.43;4.70;;;15.00;99.90;;;;;;5091283;28;20040;-67
2022/09/14 06:54:10;;;;;;;8.93;6.03;;;14.90;99.90;;;;;;5098238;28;20035;-66
2022/09/14 06:56:39;;;;;;;6.72;5.18;;;14.80;99.90;;;;;;5097857;28;20097;-65
2022/09/14 06:59:07;;;;;;;7.47;6.03;;;14.80;99.90;;;;;;5109869;27;20077;-65
2022/09/14 07:01:34;;;;;;;7.63;5.93;;;14.80;99.90;;;;;;5096472;28;20078;-67
2022/09/14 07:04:00;;;;;;;7.38;5.35;;;14.80;99.90;;;;;;5094555;28;20032;-66
2022/09/14 07:06:27;;;;;;;;;;;14.80;99.90;;;;;;5096727;28;20039;-68
2022/09/14 07:08:53;;;;;;;7.15;4.97;;;14.80;99.90;;;;;;5089214;28;19920;-65
2022/09/14 07:11:21;;;;;;;13.48;6.45;;;14.90;99.90;;;;;;5101142;28;20036;-65
2022/09/14 07:13:47;;;;;;;7.28;5.60;;;14.80;99.90;;;;;;5093798;28;20035;-66
2022/09/14 07:16:13;;;;;;;;;;;14.80;99.90;;;;;;5100346;28;20051;-66
2022/09/14 07:18:40;;;;;;;7.78;5.38;;;14.80;99.90;;;;;;5090668;28;19958;-68
2022/09/14 07:21:09;;;;;;;11.32;6.05;;;14.80;99.90;;;;;;5095703;28;20048;-66
2022/09/14 07:23:37;;;;;;;6.30;4.88;;;14.80;99.90;;;;;;5093505;28;20051;-66
2022/09/14 07:26:06;;;;;;;8.73;5.82;;;14.80;99.90;;;;;;5081557;28;20131;-69
2022/09/14 07:28:33;;;;;;;9.05;5.57;;;14.80;99.90;;;;;;5096170;28;20122;-65
2022/09/14 07:30:59;;;;;;;5.43;4.90;;;14.80;99.90;;;;;;5097922;28;20367;-68
2022/09/14 07:33:25;;;;;;;7.05;4.93;;;14.80;99.90;;;;;;5110029;28;20687;-69
2022/09/14 07:35:51;;;;;;;;;;;14.80;99.90;;;;;;5099559;28;20039;-67
2022/09/14 07:38:18;;;;;;;7.20;5.00;;;14.80;99.90;;;;;;5096531;28;20382;-64
2022/09/14 07:40:43;;;;;;;6.45;5.00;;;14.80;99.90;;;;;;5099579;28;20039;-66
2022/09/14 07:43:09;;;;;;;;;;;14.90;99.90;;;;;;5090593;28;20046;-67
2022/09/14 07:45:36;;;;;;;7.43;4.25;;;14.90;99.90;;;;;;5104500;28;19912;-67
2022/09/14 07:48:02;;;;;;;4.75;4.25;;;14.90;99.90;;;;;;5100991;28;20495;-66
2022/09/14 07:50:27;;;;;;;;;;;14.90;99.90;;;;;;5104973;28;20043;-66
2022/09/14 07:52:53;;;;;;;5.05;4.03;;;14.90;99.90;;;;;;5091308;28;20007;-64
2022/09/14 07:55:18;;;;;;;;;;;14.90;99.90;;;;;;5109786;27;20835;-66
2022/09/14 07:57:45;;;;;;;8.75;5.68;;;14.90;99.90;;;;;;5100081;28;19920;-65
2022/09/14 08:00:13;;;;;;;9.73;6.20;;;14.80;99.90;;;;;;5105764;28;20073;-65
2022/09/14 08:02:39;;;;;;;9.10;5.85;;;14.80;99.90;;;;;;5096690;28;20040;-67
2022/09/14 08:05:04;;;;;;;;;;;14.80;99.90;;;;;;5105089;28;20748;-67
2022/09/14 08:07:30;;;;;;;11.07;5.55;;;14.80;99.90;;;;;;5099784;28;19924;-67
2022/09/14 08:09:56;;;;;;;;;;;14.80;99.90;;;;;;5100528;28;20189;-66
2022/09/14 08:12:21;;;;;;;7.00;5.45;;;14.80;99.90;;;;;;5106178;28;20028;-68
2022/09/14 08:14:47;;;;;;;10.10;6.10;;;14.80;99.90;;;;;;5106430;28;20047;-64
2022/09/14 08:17:12;;;;;;;;;;;14.80;99.90;;;;;;5101499;28;20055;-65
2022/09/14 08:19:40;;;;;;;9.13;5.88;;;14.80;99.90;;;;;;5105868;28;19916;-67
2022/09/14 08:22:05;;;;;;;19.60;7.82;;;14.80;99.90;;;;;;5104026;28;20067;-64
2022/09/14 08:24:32;;;;;;;;;;;14.90;99.90;;;;;;5104713;28;20475;-68
2022/09/14 08:26:58;;;;;;;10.52;6.75;;;14.80;99.90;;;;;;5106368;27;20014;-66
2022/09/14 08:29:24;;;;;;;10.15;6.80;;;14.80;99.90;;;;;;5104229;28;20044;-65
2022/09/14 08:31:51;;;;;;;12.10;8.95;;;14.80;99.90;;;;;;5100408;28;20137;-65
2022/09/14 08:34:18;;;;;;;11.90;8.15;;;14.80;99.90;;;;;;5103004;28;20399;-67
2022/09/14 08:36:45;;;;;;;13.93;9.57;;;14.80;99.90;;;;;;5104729;28;20042;-65
2022/09/14 08:39:14;;;;;;;15.10;10.18;;;14.80;99.90;;;;;;5095893;28;20086;-63
2022/09/14 08:41:49;;;;;;;15.18;9.85;;;14.80;99.90;;;;;;5096297;28;20495;-64
2022/09/14 08:44:30;;;;;;;15.63;10.73;;;14.80;99.90;;;;;;5102530;28;20044;-65
2022/09/14 08:47:01;;;;;;;16.73;10.18;;;14.90;99.90;;;;;;5094805;28;20343;-65
2022/09/14 08:50:20;;;;;;;12.88;8.25;;;14.90;99.90;;;;;;5105782;28;20040;-65
2022/09/14 08:52:52;;;;;;;12.45;7.32;;;15.00;99.90;;;;;;5028731;28;20123;-65
2022/09/14 08:55:40;;;;;;;14.43;8.43;;;15.00;99.90;;;;;;5033398;28;20045;-65
2022/09/14 08:58:42;;;;;;;16.55;7.97;;;15.00;99.90;;;;;;5085902;28;20047;-65
2022/09/14 09:01:27;;;;;;;11.02;7.20;;;15.00;99.90;;;;;;5097253;28;20047;-64
2022/09/14 09:03:55;;;;;;;10.98;6.65;;;15.00;99.90;;;;;;5107400;28;20085;-67
2022/09/14 09:06:39;;;;;;;8.57;5.97;;;15.10;99.90;;;;;;5101495;28;20049;-67
2022/09/14 09:09:16;;;;;;;7.78;4.53;;;15.10;99.90;;;;;;5098815;28;20032;-65
2022/09/14 09:11:45;;;;;;;;;;;15.00;99.90;;;;;;5094533;28;20043;-66
2022/09/14 09:14:22;;;;;;;5.75;3.80;;;15.00;99.90;;;;;;5106299;28;19919;-65
2022/09/14 09:16:51;;;;;;;5.35;3.78;;;15.00;99.90;;;;;;5105676;28;20032;-66
2022/09/14 09:19:23;;;;;;;9.07;4.80;;;15.00;99.90;;;;;;5107093;28;20658;-67
2022/09/14 09:21:50;;;;;;;7.78;4.40;;;15.00;99.90;;;;;;5103399;28;20039;-65
2022/09/14 09:24:24;;;;;;;4.53;3.58;;;15.00;99.90;;;;;;5106533;28;20039;-65
2022/09/14 09:26:50;;;;;;;6.55;4.32;;;15.10;99.90;;;;;;5106681;27;20064;-67
2022/09/14 09:29:15;;;;;;;;;;;15.10;99.90;;;;;;5106898;28;20031;-65
2022/09/14 09:31:53;;;;;;;5.82;3.88;;;15.10;99.90;;;;;;5103499;27;19965;-64
2022/09/14 09:34:26;;;;;;;5.97;3.30;;;15.10;99.90;;;;;;5107262;28;20035;-65
2022/09/14 09:36:52;;;;;;;4.75;2.97;;;15.10;99.90;;;;;;5100483;28;20043;-64
2022/09/14 09:39:18;;;;;;;2.67;1.80;;;15.10;99.90;;;;;;5097736;28;20093;-66
2022/09/14 09:41:43;;;;;;;;;;;15.10;99.90;;;;;;5096423;28;20040;-64
2022/09/14 09:44:09;;;;;;;1.48;1.33;;;15.10;99.90;;;;;;5101350;28;19916;-66
2022/09/14 09:46:44;;;;;;;3.42;1.50;;;15.10;99.90;;;;;;5103531;28;20036;-66
2022/09/14 09:49:26;;;;;;;2.65;1.52;;;15.10;99.90;;;;;;5107833;28;20092;-67
2022/09/14 09:51:53;;;;;;;1.95;1.63;;;15.10;99.90;;;;;;5102882;28;20039;-64
2022/09/14 09:54:40;;;;;;;2.50;1.83;;;15.10;99.90;;;;;;5104386;28;20539;-65
2022/09/14 09:57:18;;;;;;;;;;;15.00;99.90;;;;;;5092012;27;20408;-67
2022/09/14 09:59:45;;;;;;;3.83;2.17;;;15.00;99.90;;;;;;5103448;28;19965;-65
2022/09/14 10:02:28;;;;;;;2.40;1.85;;;15.00;99.90;;;;;;5095119;28;20039;-66
2022/09/14 10:05:27;;;;;;;2.78;1.77;;;15.00;99.90;;;;;;5103671;28;20419;-65
2022/09/14 10:07:59;;;;;;;2.28;1.48;;;14.90;99.90;;;;;;5084080;28;20148;-63
2022/09/14 10:10:46;;;;;;;3.03;1.67;;;15.00;99.90;;;;;;5095574;28;20054;-66
2022/09/14 10:13:36;;;;;;;2.03;1.50;;;15.00;99.90;;;;;;5103914;28;20047;-67
2022/09/14 10:16:15;;;;;;;1.65;1.10;;;15.00;99.90;;;;;;5095625;28;20040;-67
2022/09/14 10:18:44;;;;;;;1.17;0.90;;;15.00;99.90;;;;;;5097249;28;20062;-65
2022/09/14 10:21:16;;;;;;;1.02;0.60;;;15.00;99.90;;;;;;5096087;28;20075;-67
2022/09/14 10:23:42;;;;;;;5.30;0.77;;;15.00;99.90;;;;;;5096842;28;20088;-66
2022/09/14 10:26:11;;;;;;;2.13;0.77;;;14.90;99.90;;;;;;5101673;27;20044;-66
2022/09/14 10:28:39;;;;;;;0.93;0.73;;;15.00;99.90;;;;;;5097724;28;20066;-65
2022/09/14 10:31:13;;;;;;;1.00;0.60;;;15.00;99.90;;;;;;5100610;28;20024;-65
2022/09/14 10:33:39;;;;;;;0.98;0.50;;;15.00;99.90;;;;;;5093781;28;20035;-65
2022/09/14 10:36:22;;;;;;;;;;;15.00;99.90;;;;;;5094141;28;20044;-66
2022/09/14 10:39:02;;;;;;;2.33;1.00;;;15.00;99.90;;;;;;5098357;28;19943;-65
2022/09/14 10:41:44;;;;;;;0.95;0.52;;;15.10;99.90;;;;;;5093391;28;20114;-64
2022/09/14 10:44:24;;;;;;;1.77;0.40;;;15.10;99.90;;;;;;5097313;28;20032;-65
2022/09/14 10:47:08;;;;;;;0.70;0.50;;;15.10;99.90;;;;;;5093169;28;20036;-64
2022/09/14 10:50:00;;;;;;;4.03;0.30;;;15.20;99.90;;;;;;5094093;28;20051;-66
2022/09/14 10:52:40;;;;;;;0.20;0.20;;;15.10;99.90;;;;;;5096983;28;20044;-65
2022/09/14 10:55:31;;;;;;;0.98;0.32;;;15.10;99.90;;;;;;5094643;28;20040;-65
2022/09/14 10:58:09;;;;;;;0.68;0.30;;;15.10;99.90;;;;;;5098280;28;20495;-66
2022/09/14 11:00:46;;;;;;;1.02;0.50;;;15.10;99.90;;;;;;5097590;28;20043;-65
2022/09/14 11:03:34;;;;;;;1.65;0.30;;;15.10;99.90;;;;;;5096033;28;20100;-65
2022/09/14 11:06:22;;;;;;;0.25;0.20;;;15.10;99.90;;;;;;5093494;28;20043;-65
2022/09/14 11:09:08;;;;;;;2.38;0.60;;;15.10;99.90;;;;;;5092998;28;20036;-65
2022/09/14 11:12:05;;;;;;;0.52;0.25;;;15.10;99.90;;;;;;5093091;28;20403;-66
2022/09/14 11:14:31;;;;;;;;;;;15.10;99.90;;;;;;5092574;28;20665;-65
2022/09/14 11:17:06;;;;;;;3.08;0.30;;;15.10;99.90;;;;;;5094325;28;19915;-65
2022/09/14 11:19:56;;;;;;;2.10;0.30;;;15.10;99.90;;;;;;5101810;28;20119;-65
2022/09/14 11:22:41;;;;;;;3.33;0.90;;;15.10;99.90;;;;;;5089954;28;20451;-65
2022/09/14 11:25:14;;;;;;;3.47;0.30;;;15.20;99.90;;;;;;5100128;28;20107;-64
2022/09/14 11:27:47;;;;;;;2.22;0.35;;;15.30;99.90;;;;;;5093938;28;20055;-63
2022/09/14 11:30:19;;;;;;;4.25;0.30;;;15.30;99.90;;;;;;5098394;28;20070;-64
2022/09/14 11:32:50;;;;;;;0.10;0.10;;;15.30;99.90;;;;;;5096409;28;20043;-65
2022/09/14 11:35:51;;;;;;;0.95;0.50;;;15.30;99.90;;;;;;5098454;28;20046;-66
2022/09/14 11:38:19;;;;;;;0.20;0.20;;;15.30;99.90;;;;;;5088659;28;20495;-66
2022/09/14 11:40:59;;;;;;;0.10;0.10;;;15.30;99.90;;;;;;5091855;28;20043;-66
2022/09/14 11:44:05;;;;;;;0.10;0.10;;;15.30;99.90;;;;;;5093499;28;20152;-65
2022/09/14 11:46:52;;;;;;;0.28;0.20;;;15.20;99.90;;;;;;5069750;28;20059;-66
2022/09/14 11:49:55;;;;;;;0.30;0.20;;;15.20;99.90;;;;;;5095285;28;20790;-64
2022/09/14 11:52:27;;;;;;;0.47;0.10;;;15.20;99.90;;;;;;5084728;28;20044;-66
2022/09/14 11:54:53;;;;;;;0.10;0.10;;;15.20;99.90;;;;;;5098312;28;20044;-65
2022/09/14 11:57:24;;;;;;;0.10;0.10;;;15.20;99.90;;;;;;5094079;28;20032;-65
2022/09/14 11:59:57;;;;;;;0.52;0.20;;;15.10;99.90;;;;;;5094822;28;20036;-65
2022/09/14 12:02:26;;;;;;;0.10;0.10;;;15.10;99.90;;;;;;5091132;28;20936;-65
2022/09/14 12:05:18;;;;;;;0.45;0.10;;;15.10;99.90;;;;;;5102515;28;20146;-66
2022/09/14 12:07:46;;;;;;;0.25;0.20;;;15.10;99.90;;;;;;5104201;28;20079;-65
2022/09/14 12:10:15;;;;;;;0.77;0.20;;;15.20;99.90;;;;;;5100634;28;20368;-66
2022/09/14 12:12:49;;;;;;;0.32;0.22;;;15.20;99.90;;;;;;5092218;28;20071;-66
2022/09/14 12:15:32;;;;;;;1.05;0.20;;;15.10;99.90;;;;;;5106456;28;20036;-63
2022/09/14 12:18:06;;;;;;;0.20;0.20;;;15.10;99.90;;;;;;5108064;28;20415;-65
2022/09/14 12:20:56;;;;;;;0.77;0.28;;;15.10;99.90;;;;;;5108878;28;20123;-66
2022/09/14 12:23:30;;;;;;;0.45;0.20;;;15.00;99.90;;;;;;5111354;28;20157;-65
2022/09/14 12:26:11;;;;;;;0.28;0.28;;;14.90;99.90;;;;;;5112845;27;20066;-65
2022/09/14 12:28:36;;;;;;;0.38;0.30;;;15.00;99.90;;;;;;5108639;28;20116;-66
2022/09/14 12:31:02;;;;;;;;;;;15.00;99.90;;;;;;5104255;28;20475;-65
2022/09/14 12:33:33;;;;;;;0.10;0.10;;;14.90;99.90;;;;;;5096707;28;19927;-66
2022/09/14 12:36:02;;;;;;;0.10;0.10;;;14.90;99.90;;;;;;5098688;28;20071;-66
2022/09/14 12:38:30;;;;;;;0.52;0.13;;;14.80;99.90;;;;;;5101899;28;20051;-66
2022/09/14 12:41:20;;;;;;;0.40;0.20;;;14.80;99.90;;;;;;5103542;28;20044;-66
2022/09/14 12:43:49;;;;;;;0.45;0.20;;;14.80;99.90;;;;;;5109753;27;20118;-63
2022/09/14 12:46:21;;;;;;;0.28;0.20;;;14.80;99.90;;;;;;5098763;28;20510;-66
2022/09/14 12:48:46;;;;;;;0.47;0.20;;;14.80;99.90;;;;;;5090794;28;20051;-66
2022/09/14 12:51:31;;;;;;;;;;;14.90;99.90;;;;;;5097972;28;20407;-66
2022/09/14 12:53:56;;;;;;;0.70;0.40;;;15.00;99.90;;;;;;5101937;28;20610;-65
2022/09/14 12:56:26;;;;;;;;;;;15.10;99.90;;;;;;5109643;27;20046;-65
2022/09/14 12:59:15;;;;;;;1.90;0.30;;;15.10;99.90;;;;;;5118676;27;19930;-65
2022/09/14 13:02:17;;;;;;;0.35;0.20;;;15.10;99.90;;;;;;5098668;28;20177;-65
2022/09/14 13:04:44;;;;;;;0.30;0.20;;;15.10;99.90;;;;;;5106206;28;20043;-66
2022/09/14 13:07:19;;;;;;;2.05;0.25;;;15.20;99.90;;;;;;5102869;28;20043;-65
2022/09/14 13:09:54;;;;;;;0.20;0.20;;;15.20;99.90;;;;;;5097932;28;20040;-65
2022/09/14 13:12:30;;;;;;;0.60;0.20;;;15.20;99.90;;;;;;5095100;28;20487;-64
2022/09/14 13:15:00;;;;;;;0.20;0.20;;;15.20;99.90;;;;;;5105827;28;20072;-66
2022/09/14 13:17:26;;;;;;;0.20;0.15;;;15.20;99.90;;;;;;5107896;28;20040;-65
2022/09/14 13:19:59;;;;;;;;;;;15.20;99.90;;;;;;5106473;28;20165;-65